Cotton Center, Texas
Current Conditions -  °F | °C
As of 7:15 PM on Saturday 22 Nov 2014 (Local Time) from KPVW Reporting Station
Clear Clear  
Wind Chill: 51°   Ceiling: Unl
Heat Index: 51°   Visibility: 10mi
Dew Point: 45°   Wind: 7mph
Humidity: 80%   Direction: 200°SSW
Pressure: 29.73"   Gusts: NA
Location:  33.99°N, 101.99°W
Report Text: KPVW 230115Z AUTO 20006KT 10SM CLR 11/07 A2973 RMK AO2 T01060072
Loading
Personal Weather Stations






























Interactive Weather Map New forecast layout! Learn more

10-Day Weather Forecast

Advertisements
Track Severe Weather on mobile